Time;durP1;ratioP1;P1;durP2;ratioP2;P2;SDS_P1;SDS_P2;PMS_P1;PMS_P2;Temp;Humidity;BMP_temperature;BMP_pressure;BME280_temperature;BME280_humidity;BME280_pressure;Samples;Min_cycle;Max_cycle;Signal;HPM_P1;HPM_P2
2022/12/11 00:01:44;;;;;;;12.35;9.52;;;;;;;-3.23;100.00;95095.81;5064957;28;24430;-70
2022/12/11 00:04:11;;;;;;;9.98;8.98;;;;;;;-3.40;100.00;95096.16;5068204;28;24813;-70
2022/12/11 00:06:37;;;;;;;10.43;9.05;;;;;;;-3.42;100.00;95097.88;5061069;28;24446;-70
2022/12/11 00:09:04;;;;;;;11.30;9.00;;;;;;;-3.43;100.00;95101.28;5062830;28;25023;-70
2022/12/11 00:11:30;;;;;;;10.77;9.68;;;;;;;-3.57;100.00;95100.72;5070079;28;24442;-70
2022/12/11 00:13:58;;;;;;;10.50;9.40;;;;;;;-3.48;100.00;95096.31;5066605;28;24975;-70
2022/12/11 00:16:25;;;;;;;11.85;9.13;;;;;;;-3.45;100.00;95103.00;5067333;28;24445;-70
2022/12/11 00:18:51;;;;;;;9.18;7.20;;;;;;;-3.27;100.00;95097.56;5067793;28;24435;-70
2022/12/11 00:21:18;;;;;;;7.82;6.47;;;;;;;-3.32;100.00;95101.91;5063528;28;24816;-70
2022/12/11 00:23:44;;;;;;;8.27;6.30;;;;;;;-3.44;100.00;95092.03;5069499;28;24442;-70
2022/12/11 00:26:14;;;;;;;7.50;6.70;;;;;;;-3.59;100.00;95088.09;5059098;28;24458;-70
2022/12/11 00:28:41;;;;;;;9.77;7.20;;;;;;;-3.49;100.00;95093.78;5068628;28;24445;-70
2022/12/11 00:31:13;;;;;;;7.85;7.05;;;;;;;-3.51;100.00;95093.00;5069329;28;24442;-70
2022/12/11 00:33:40;;;;;;;7.53;6.75;;;;;;;-3.53;100.00;95097.25;5064519;28;25352;-70
2022/12/11 00:36:11;;;;;;;8.75;6.60;;;;;;;-3.50;100.00;95092.13;5056815;28;24991;-70
2022/12/11 00:38:38;;;;;;;6.10;5.13;;;;;;;-3.42;100.00;95093.66;5068795;28;24446;-70
2022/12/11 00:41:04;;;;;;;6.25;5.28;;;;;;;-3.56;100.00;95088.03;5066149;28;24439;-70
2022/12/11 00:43:31;;;;;;;6.28;5.38;;;;;;;-3.56;100.00;95082.13;5067642;28;24435;-70
2022/12/11 00:45:57;;;;;;;5.70;5.10;;;;;;;-3.60;100.00;95088.09;5056667;28;24438;-70
2022/12/11 00:48:25;;;;;;;5.93;5.32;;;;;;;-3.67;100.00;95088.25;5060838;28;24434;-69
2022/12/11 00:50:52;;;;;;;6.35;5.60;;;;;;;-3.74;100.00;95099.34;5063660;28;24438;-69
2022/12/11 00:53:18;;;;;;;7.10;6.40;;;;;;;-3.73;100.00;95095.94;5068964;28;24439;-69
2022/12/11 00:55:45;;;;;;;7.93;7.13;;;;;;;-3.72;100.00;95097.59;5058939;28;24809;-70
2022/12/11 00:58:12;;;;;;;5.77;5.20;;;;;;;-3.52;100.00;95098.91;5055325;28;24458;-69
2022/12/11 01:00:39;;;;;;;6.50;5.40;;;;;;;-3.49;100.00;95101.38;5068482;28;25212;-69
2022/12/11 01:03:06;;;;;;;6.10;5.50;;;;;;;-3.59;100.00;95110.03;5059736;28;24454;-70
2022/12/11 01:05:34;;;;;;;6.47;5.88;;;;;;;-3.62;100.00;95102.50;5060399;28;24790;-69
2022/12/11 01:08:01;;;;;;;6.50;5.90;;;;;;;-3.44;100.00;95104.69;5057924;28;24427;-69
2022/12/11 01:10:26;;;;;;;6.68;5.88;;;;;;;-3.52;100.00;95106.50;5064594;28;24453;-69
2022/12/11 01:12:55;;;;;;;7.60;6.70;;;;;;;-3.68;100.00;95116.09;5068476;28;25016;-69
2022/12/11 01:15:23;;;;;;;9.32;6.70;;;;;;;-3.72;100.00;95127.13;5060453;28;24488;-70
2022/12/11 01:17:50;;;;;;;8.00;6.95;;;;;;;-3.61;100.00;95120.19;5064743;28;24450;-70
2022/12/11 01:20:19;;;;;;;8.75;7.43;;;;;;;-3.60;100.00;95129.44;5061437;28;24540;-70
2022/12/11 01:22:47;;;;;;;9.15;7.70;;;;;;;-3.67;100.00;95128.72;5057896;28;25080;-69
2022/12/11 01:25:14;;;;;;;10.52;8.10;;;;;;;-3.66;100.00;95132.91;5061205;28;24469;-69
2022/12/11 01:27:41;;;;;;;12.88;9.55;;;;;;;-3.66;100.00;95132.91;5061184;28;24456;-69
2022/12/11 01:30:09;;;;;;;14.85;10.75;;;;;;;-3.71;100.00;95129.66;5063584;28;24438;-69
2022/12/11 01:32:36;;;;;;;15.48;10.68;;;;;;;-3.70;100.00;95140.59;5066811;28;24500;-70
2022/12/11 01:35:03;;;;;;;14.02;10.80;;;;;;;-3.87;100.00;95135.81;5069005;28;24430;-70
2022/12/11 01:37:30;;;;;;;11.95;9.30;;;;;;;-3.87;100.00;95135.00;5068715;28;24836;-70
2022/12/11 01:39:59;;;;;;;13.88;10.45;;;;;;;-4.11;100.00;95139.59;5064003;28;24438;-69
2022/12/11 01:42:27;;;;;;;12.55;10.07;;;;;;;-4.03;100.00;95139.47;5064092;28;24801;-70
2022/12/11 01:45:32;;;;;;;12.98;10.63;;;;;;;-4.08;100.00;95141.22;5064196;28;24510;-69
2022/12/11 01:48:07;;;;;;;12.07;9.55;;;;;;;-4.15;100.00;95148.94;5041779;28;24440;-69
2022/12/11 01:50:38;;;;;;;15.70;12.18;;;;;;;-4.30;100.00;95156.75;5060239;28;24435;-70
2022/12/11 01:53:07;;;;;;;16.88;12.52;;;;;;;-4.52;100.00;95155.41;5064454;28;24439;-70
2022/12/11 01:55:37;;;;;;;70.55;35.67;;;;;;;-4.60;100.00;95157.19;5067911;28;24522;-69
2022/12/11 01:58:04;;;;;;;64.40;31.33;;;;;;;-4.65;100.00;95158.09;5066819;28;24541;-69
2022/12/11 02:00:30;;;;;;;36.80;20.30;;;;;;;-4.51;100.00;95146.97;5064076;28;24442;-70
2022/12/11 02:02:57;;;;;;;37.67;22.10;;;;;;;-4.68;100.00;95147.19;5067077;28;25029;-70
2022/12/11 02:05:23;;;;;;;21.73;14.67;;;;;;;-4.67;100.00;95146.34;5067718;28;24434;-70
2022/12/11 02:07:53;;;;;;;26.73;16.95;;;;;;;-4.45;100.00;95147.72;5060410;28;24437;-69
2022/12/11 02:10:22;;;;;;;33.70;19.33;;;;;;;-4.59;100.00;95147.06;5061330;28;24885;-70
2022/12/11 02:12:56;;;;;;;51.97;31.00;;;;;;;-4.48;100.00;95149.44;5059481;28;24436;-69
2022/12/11 02:15:31;;;;;;;71.38;34.20;;;;;;;-4.35;100.00;95152.63;5065133;28;24437;-70
2022/12/11 02:18:11;;;;;;;60.73;34.93;;;;;;;-4.44;100.00;95156.13;5057691;28;24602;-70
2022/12/11 02:20:41;;;;;;;55.58;28.25;;;;;;;-4.51;100.00;95152.00;5061744;28;25000;-70
2022/12/11 02:23:32;;;;;;;34.15;20.48;;;;;;;-4.48;100.00;95157.84;5065766;28;24450;-70
2022/12/11 02:26:11;;;;;;;29.35;19.40;;;;;;;-4.58;100.00;95158.00;5067233;28;24465;-69
2022/12/11 02:28:43;;;;;;;21.98;15.38;;;;;;;-4.39;100.00;95152.66;5060191;28;24484;-70
2022/12/11 02:31:14;;;;;;;15.13;11.70;;;;;;;-4.33;100.00;95146.69;5059982;28;24442;-70
2022/12/11 02:33:46;;;;;;;14.20;9.80;;;;;;;-4.32;100.00;95155.94;5066312;28;24446;-70
2022/12/11 02:36:17;;;;;;;10.45;8.95;;;;;;;-4.42;100.00;95161.97;5057243;28;24840;-70
2022/12/11 02:38:49;;;;;;;10.85;9.75;;;;;;;-4.62;100.00;95155.53;5062183;28;24457;-70
2022/12/11 02:41:18;;;;;;;14.68;9.70;;;;;;;-4.46;100.00;95150.25;5065140;28;24541;-70
2022/12/11 02:43:49;;;;;;;10.65;8.95;;;;;;;-4.60;100.00;95152.97;5062421;28;24525;-70
2022/12/11 02:46:17;;;;;;;11.77;10.30;;;;;;;-5.03;100.00;95153.53;5058591;28;24435;-70
2022/12/11 02:48:46;;;;;;;12.77;8.98;;;;;;;-4.85;100.00;95151.66;5061423;28;24435;-70
2022/12/11 02:51:16;;;;;;;13.00;9.50;;;;;;;-5.16;100.00;95152.84;5066291;28;24434;-70
2022/12/11 02:53:45;;;;;;;12.07;9.35;;;;;;;-5.40;100.00;95153.13;5067961;28;24443;-70
2022/12/11 02:56:16;;;;;;;13.43;9.15;;;;;;;-5.34;100.00;95148.00;5063153;28;24427;-70
2022/12/11 02:58:47;;;;;;;12.95;9.82;;;;;;;-5.30;100.00;95151.31;5065309;28;25270;-70
2022/12/11 03:01:14;;;;;;;15.73;11.30;;;;;;;-5.17;100.00;95145.28;5066317;28;24435;-70
2022/12/11 03:03:41;;;;;;;17.92;13.85;;;;;;;-5.13;100.00;95141.88;5060018;28;25012;-70
2022/12/11 03:06:13;;;;;;;14.27;10.90;;;;;;;-5.26;100.00;95143.72;5061750;28;24435;-70
2022/12/11 03:08:39;;;;;;;12.75;10.80;;;;;;;-5.11;100.00;95137.66;5069716;28;24427;-70
2022/12/11 03:11:10;;;;;;;12.50;10.85;;;;;;;-5.27;100.00;95143.72;5069131;28;24435;-70
2022/12/11 03:13:37;;;;;;;11.48;9.32;;;;;;;-5.05;100.00;95141.78;5068002;28;24457;-70
2022/12/11 03:16:15;;;;;;;12.48;10.05;;;;;;;-4.96;100.00;95145.03;5069632;28;24446;-70
2022/12/11 03:18:51;;;;;;;11.37;10.17;;;;;;;-4.89;100.00;95149.16;5061279;28;24451;-70
2022/12/11 03:21:24;;;;;;;10.10;9.07;;;;;;;-4.96;100.00;95144.22;5070354;28;24793;-70
2022/12/11 03:23:57;;;;;;;13.57;9.48;;;;;;;-5.02;100.00;95151.84;5069415;28;24488;-70
2022/12/11 03:26:24;;;;;;;11.77;9.65;;;;;;;-5.05;100.00;95144.31;5070005;28;24517;-70
2022/12/11 03:28:56;;;;;;;9.80;8.80;;;;;;;-5.06;100.00;95151.03;5059875;28;24427;-70
2022/12/11 03:31:29;;;;;;;10.00;8.50;;;;;;;-4.89;100.00;95140.75;5063549;28;25007;-70
2022/12/11 03:34:02;;;;;;;10.33;9.27;;;;;;;-4.78;100.00;95143.09;5066644;28;24431;-70
2022/12/11 03:36:32;;;;;;;14.55;8.75;;;;;;;-4.61;100.00;95141.19;5059636;28;24431;-70
2022/12/11 03:39:02;;;;;;;9.60;8.70;;;;;;;-4.52;100.00;95143.59;5066790;28;24453;-70
2022/12/11 03:41:33;;;;;;;13.05;8.77;;;;;;;-4.50;100.00;95151.16;5062758;28;24488;-70
2022/12/11 03:44:00;;;;;;;12.23;8.57;;;;;;;-4.47;100.00;95156.16;5066381;28;24431;-70
2022/12/11 03:46:32;;;;;;;9.55;8.50;;;;;;;-4.38;100.00;95154.31;5067561;28;24984;-70
2022/12/11 03:49:04;;;;;;;13.07;8.90;;;;;;;-4.46;100.00;95155.28;5067035;28;24434;-70
2022/12/11 03:51:33;;;;;;;9.75;8.20;;;;;;;-4.49;100.00;95152.81;5062762;28;24437;-70
2022/12/11 03:54:00;;;;;;;9.15;8.05;;;;;;;-4.60;100.00;95147.91;5065878;28;24445;-70
2022/12/11 03:56:30;;;;;;;9.32;8.38;;;;;;;-4.70;100.00;95152.28;5058320;28;24435;-71
2022/12/11 03:58:56;;;;;;;11.27;8.20;;;;;;;-4.68;100.00;95149.72;5059053;28;24458;-70
2022/12/11 04:01:23;;;;;;;9.50;8.20;;;;;;;-4.66;100.00;95153.91;5063472;28;24430;-70
2022/12/11 04:03:51;;;;;;;9.77;8.18;;;;;;;-4.58;100.00;95145.38;5066392;28;24438;-70
2022/12/11 04:06:17;;;;;;;9.27;8.35;;;;;;;-4.44;100.00;95144.31;5069719;28;24437;-70
2022/12/11 04:08:44;;;;;;;9.38;8.38;;;;;;;-4.50;100.00;95149.44;5066387;28;25321;-70
2022/12/11 04:16:36;;;;;;;8.63;7.65;;;;;;;-4.50;100.00;95129.22;5062056;28;24983;-72
2022/12/11 04:24:32;;;;;;;9.25;7.85;;;;;;;-4.34;100.00;95134.88;5068954;28;24437;-72
2022/12/11 04:26:59;;;;;;;10.77;8.10;;;;;;;-4.34;100.00;95123.94;5069073;28;24461;-72
2022/12/11 04:29:26;;;;;;;10.30;8.40;;;;;;;-4.44;100.00;95124.09;5064929;28;24426;-72
2022/12/11 04:31:52;;;;;;;10.13;8.67;;;;;;;-4.53;100.00;95123.38;5070437;28;24812;-72
2022/12/11 04:34:20;;;;;;;13.75;8.25;;;;;;;-4.60;100.00;95115.06;5069140;28;24434;-72
2022/12/11 04:36:47;;;;;;;9.90;8.77;;;;;;;-4.60;100.00;95117.59;5064465;28;24441;-72
2022/12/11 04:39:13;;;;;;;12.57;8.80;;;;;;;-4.41;100.00;95123.22;5066704;28;25011;-72
2022/12/11 04:41:41;;;;;;;9.70;8.05;;;;;;;-4.26;100.00;95122.16;5070243;28;24444;-72
2022/12/11 04:44:07;;;;;;;10.25;7.93;;;;;;;-4.23;100.00;95127.13;5069389;28;25034;-72
2022/12/11 04:46:34;;;;;;;8.93;8.02;;;;;;;-4.19;100.00;95126.22;5064210;28;24801;-72
2022/12/11 04:49:01;;;;;;;10.57;8.43;;;;;;;-4.23;100.00;95125.44;5066662;28;24436;-72
2022/12/11 04:51:29;;;;;;;12.73;9.10;;;;;;;-4.44;100.00;95124.09;5062141;28;24441;-72
2022/12/11 04:53:56;;;;;;;13.35;8.65;;;;;;;-4.50;100.00;95119.13;5068435;28;24530;-72
2022/12/11 04:56:22;;;;;;;9.52;8.52;;;;;;;-4.41;100.00;95123.22;5063664;28;24439;-72
2022/12/11 04:58:49;;;;;;;11.63;8.47;;;;;;;-4.50;100.00;95115.75;5062341;28;24462;-72
2022/12/11 05:01:19;;;;;;;13.02;9.60;;;;;;;-4.52;100.00;95120.03;5067727;28;24445;-72
2022/12/11 05:03:45;;;;;;;11.80;9.65;;;;;;;-4.70;100.00;95121.13;5061566;28;24443;-72
2022/12/11 05:06:13;;;;;;;13.15;9.63;;;;;;;-4.55;100.00;95117.53;5062458;28;25010;-72
2022/12/11 05:08:42;;;;;;;12.30;9.68;;;;;;;-4.60;100.00;95122.63;5063484;28;24836;-72
2022/12/11 05:11:12;;;;;;;12.55;9.20;;;;;;;-4.52;100.00;95122.56;5068532;28;24431;-72
2022/12/11 05:13:38;;;;;;;11.70;9.50;;;;;;;-4.46;100.00;95117.38;5068275;28;24438;-73
2022/12/11 05:16:06;;;;;;;10.55;9.55;;;;;;;-4.46;100.00;95119.91;5063608;28;24441;-72
2022/12/11 05:18:33;;;;;;;10.57;8.70;;;;;;;-4.67;100.00;95113.50;5066908;28;24454;-72
2022/12/11 05:21:01;;;;;;;11.07;9.10;;;;;;;-4.63;100.00;95107.53;5062927;28;24443;-72
2022/12/11 05:23:28;;;;;;;15.63;8.90;;;;;;;-4.45;100.00;95107.28;5059955;28;24454;-72
2022/12/11 05:25:58;;;;;;;12.10;9.37;;;;;;;-4.43;100.00;95104.72;5064865;28;24495;-72
2022/12/11 05:28:27;;;;;;;11.32;9.07;;;;;;;-4.53;100.00;95104.00;5064531;28;24818;-72
2022/12/11 05:30:56;;;;;;;12.20;8.88;;;;;;;-4.47;100.00;95103.91;5067526;28;24443;-72
2022/12/11 05:33:23;;;;;;;10.48;9.27;;;;;;;-4.43;100.00;95102.19;5064605;28;24446;-72
2022/12/11 05:35:49;;;;;;;12.32;9.65;;;;;;;-4.34;100.00;95093.59;5061708;28;24442;-72
2022/12/11 05:38:16;;;;;;;11.57;10.30;;;;;;;-4.37;100.00;95097.03;5063224;28;24512;-72
2022/12/11 05:40:43;;;;;;;10.88;9.55;;;;;;;-4.28;100.00;95101.09;5063802;28;24431;-72
2022/12/11 05:43:10;;;;;;;12.23;9.75;;;;;;;-4.35;100.00;95091.94;5066877;28;24445;-73
2022/12/11 05:45:37;;;;;;;12.43;9.77;;;;;;;-4.46;100.00;95087.88;5060300;28;24441;-72
2022/12/11 05:48:04;;;;;;;11.70;9.80;;;;;;;-4.44;100.00;95090.41;5063934;28;24439;-72
2022/12/11 05:50:31;;;;;;;15.13;12.73;;;;;;;-4.49;100.00;95082.03;5066573;28;24438;-72
2022/12/11 05:52:58;;;;;;;18.27;13.57;;;;;;;-4.53;100.00;95076.19;5068352;28;24442;-72
2022/12/11 05:55:24;;;;;;;15.60;13.98;;;;;;;-4.49;100.00;95077.00;5060017;28;24474;-72
2022/12/11 05:57:51;;;;;;;11.43;10.23;;;;;;;-4.57;100.00;95078.81;5062993;28;24449;-72
2022/12/11 06:00:19;;;;;;;13.43;9.98;;;;;;;-4.64;100.00;95066.25;5066275;28;24462;-72
2022/12/11 06:02:46;;;;;;;11.33;9.17;;;;;;;-4.47;100.00;95070.22;5068458;28;24518;-72
2022/12/11 06:05:12;;;;;;;11.88;9.25;;;;;;;-4.33;100.00;95070.03;5064340;28;24801;-72
2022/12/11 06:07:39;;;;;;;12.18;9.15;;;;;;;-4.26;100.00;95064.84;5064501;28;24445;-72
2022/12/11 06:10:06;;;;;;;12.73;9.90;;;;;;;-4.16;100.00;95075.59;5068553;28;24434;-72
2022/12/11 06:12:33;;;;;;;11.48;9.60;;;;;;;-4.14;100.00;95068.84;5066054;28;24438;-72
2022/12/11 06:14:59;;;;;;;10.40;9.15;;;;;;;-4.15;100.00;95068.00;5066329;28;24437;-72
2022/12/11 06:17:27;;;;;;;10.52;9.00;;;;;;;-4.16;100.00;95068.84;5065629;28;24438;-72
2022/12/11 06:19:54;;;;;;;11.57;8.90;;;;;;;-4.24;100.00;95064.78;5064338;28;24457;-72
2022/12/11 06:22:20;;;;;;;9.63;8.48;;;;;;;-4.33;100.00;95067.50;5067021;28;24447;-72
2022/12/11 06:24:47;;;;;;;10.65;9.55;;;;;;;-4.41;100.00;95063.38;5068199;28;24430;-72
2022/12/11 06:27:13;;;;;;;12.18;8.63;;;;;;;-4.34;100.00;95066.63;5066496;28;24437;-72
2022/12/11 06:29:40;;;;;;;10.07;9.02;;;;;;;-4.33;100.00;95059.91;5056789;28;24809;-72
2022/12/11 06:32:06;;;;;;;13.00;8.52;;;;;;;-4.34;100.00;95065.81;5067974;28;24525;-72
2022/12/11 06:34:34;;;;;;;11.30;8.43;;;;;;;-4.39;100.00;95060.81;5068125;28;24446;-72
2022/12/11 06:37:01;;;;;;;10.50;9.18;;;;;;;-4.40;100.00;95054.13;5061061;28;24435;-72
2022/12/11 06:39:27;;;;;;;10.50;8.80;;;;;;;-4.46;100.00;95059.25;5065881;28;25085;-72
2022/12/11 06:41:54;;;;;;;9.75;8.55;;;;;;;-4.50;100.00;95057.63;5066782;28;24434;-72
2022/12/11 06:44:20;;;;;;;14.98;8.88;;;;;;;-4.49;100.00;95069.41;5070391;28;24987;-72
2022/12/11 06:46:47;;;;;;;10.15;9.05;;;;;;;-4.47;100.00;95082.88;5071599;28;24442;-72
2022/12/11 06:49:13;;;;;;;11.80;9.10;;;;;;;-4.71;100.00;95087.44;5061416;28;24435;-71
2022/12/11 06:51:41;;;;;;;11.25;9.43;;;;;;;-5.08;100.00;95079.53;5072183;28;24458;-71
2022/12/11 06:54:08;;;;;;;12.27;9.70;;;;;;;-5.19;100.00;95087.25;5069937;28;24999;-72
2022/12/11 06:56:34;;;;;;;10.83;9.30;;;;;;;-5.17;100.00;95085.53;5063291;28;24445;-72
2022/12/11 06:59:01;;;;;;;11.25;9.25;;;;;;;-5.11;100.00;95088.00;5068172;28;24454;-72
2022/12/11 07:01:28;;;;;;;11.90;9.85;;;;;;;-5.17;100.00;95094.81;5067851;28;24519;-72
2022/12/11 07:03:56;;;;;;;11.07;9.63;;;;;;;-5.25;100.00;95092.38;5069870;28;24442;-72
2022/12/11 07:06:23;;;;;;;10.77;9.68;;;;;;;-5.03;100.00;95087.88;5065608;28;24444;-72
2022/12/11 07:08:51;;;;;;;10.02;8.50;;;;;;;-4.94;100.00;95091.97;5068562;28;24530;-72
2022/12/11 07:11:19;;;;;;;9.10;8.20;;;;;;;-4.93;100.00;95094.50;5060946;28;24480;-72
2022/12/11 07:13:46;;;;;;;9.80;8.80;;;;;;;-5.05;100.00;95092.13;5069415;28;24442;-72
2022/12/11 07:16:15;;;;;;;12.80;9.57;;;;;;;-4.97;100.00;95086.97;5068982;28;24446;-72
2022/12/11 07:18:46;;;;;;;10.00;8.95;;;;;;;-4.88;100.00;95095.25;5068737;28;24429;-72
2022/12/11 07:21:14;;;;;;;12.80;9.82;;;;;;;-4.77;100.00;95094.28;5058920;28;24458;-72
2022/12/11 07:23:41;;;;;;;10.77;9.60;;;;;;;-4.60;100.00;95092.31;5070407;28;24446;-72
2022/12/11 07:26:11;;;;;;;12.90;9.82;;;;;;;-4.54;100.00;95086.34;5066049;28;24442;-72
2022/12/11 07:28:37;;;;;;;9.48;8.48;;;;;;;-4.47;100.00;95093.81;5069032;28;24470;-73
2022/12/11 07:31:08;;;;;;;9.43;8.45;;;;;;;-4.32;100.00;95095.25;5057300;28;25194;-72
2022/12/11 07:33:34;;;;;;;12.97;9.67;;;;;;;-4.24;100.00;95100.19;5062570;28;24886;-72
2022/12/11 07:36:03;;;;;;;10.00;9.00;;;;;;;-4.17;100.00;95102.59;5068110;28;24796;-73
2022/12/11 07:38:29;;;;;;;9.43;8.43;;;;;;;-4.14;100.00;95100.03;5067756;28;24899;-73
2022/12/11 07:40:56;;;;;;;14.27;9.23;;;;;;;-4.02;100.00;95098.13;5066184;28;24988;-73
2022/12/11 07:43:24;;;;;;;13.20;9.65;;;;;;;-4.00;100.00;95102.31;5060177;28;24466;-73
2022/12/11 07:45:50;;;;;;;11.80;9.70;;;;;;;-4.14;100.00;95099.19;5061901;28;24439;-72
2022/12/11 07:48:17;;;;;;;12.90;9.75;;;;;;;-4.07;100.00;95097.41;5067283;28;24449;-72
2022/12/11 07:50:44;;;;;;;9.20;7.93;;;;;;;-4.03;100.00;95092.25;5062813;28;24450;-72
2022/12/11 07:53:10;;;;;;;10.82;8.40;;;;;;;-4.00;100.00;95096.44;5067352;28;24449;-72
2022/12/11 07:55:37;;;;;;;11.38;9.15;;;;;;;-3.96;100.00;95093.00;5061665;28;25038;-72
2022/12/11 07:58:03;;;;;;;13.57;9.02;;;;;;;-4.00;100.00;95088.84;5069714;28;24435;-72
2022/12/11 08:00:31;;;;;;;12.23;9.70;;;;;;;-4.04;100.00;95092.25;5057111;28;24450;-72
2022/12/11 08:02:58;;;;;;;24.70;20.63;;;;;;;-4.20;100.00;95086.63;5064987;28;24438;-72
2022/12/11 08:05:25;;;;;;;26.27;20.33;;;;;;;-4.17;100.00;95089.94;5064268;28;25070;-72
2022/12/11 08:07:51;;;;;;;16.70;12.52;;;;;;;-4.07;100.00;95099.94;5069661;28;24442;-72
2022/12/11 08:10:18;;;;;;;11.20;10.05;;;;;;;-3.89;100.00;95102.13;5062031;28;24529;-72
2022/12/11 08:12:44;;;;;;;12.82;10.60;;;;;;;-3.93;100.00;95105.56;5069314;28;24562;-72
2022/12/11 08:15:11;;;;;;;14.60;11.17;;;;;;;-3.94;100.00;95103.91;5069199;28;24991;-72
2022/12/11 08:17:39;;;;;;;14.82;12.10;;;;;;;-3.92;100.00;95103.03;5061414;28;24445;-72
2022/12/11 08:20:07;;;;;;;17.42;13.48;;;;;;;-3.98;100.00;95098.06;5063820;28;25026;-72
2022/12/11 08:22:34;;;;;;;18.83;13.43;;;;;;;-3.77;100.00;95098.56;5068106;28;24438;-72
2022/12/11 08:25:00;;;;;;;14.75;11.88;;;;;;;-3.83;100.00;95102.00;5060611;28;24446;-73
2022/12/11 08:27:27;;;;;;;15.63;11.40;;;;;;;-3.57;100.00;95088.06;5069834;28;24446;-72
2022/12/11 08:29:53;;;;;;;14.57;10.77;;;;;;;-3.57;100.00;95091.41;5066953;28;24423;-72
2022/12/11 08:32:20;;;;;;;14.65;10.77;;;;;;;-3.63;100.00;95094.09;5060228;28;24450;-72
2022/12/11 08:34:48;;;;;;;10.70;9.60;;;;;;;-3.52;100.00;95094.72;5060422;28;24431;-73
2022/12/11 08:37:14;;;;;;;13.85;10.63;;;;;;;-3.72;100.00;95099.28;5064975;28;24439;-72
2022/12/11 08:39:42;;;;;;;22.20;10.60;;;;;;;-3.66;100.00;95101.72;5065282;28;24461;-72
2022/12/11 08:42:08;;;;;;;12.95;11.05;;;;;;;-3.87;100.00;95104.63;5069405;28;24992;-72
2022/12/11 08:44:35;;;;;;;13.13;11.27;;;;;;;-3.96;100.00;95100.56;5069359;28;24461;-72
2022/12/11 08:47:01;;;;;;;15.07;11.50;;;;;;;-3.83;100.00;95088.53;5063767;28;24996;-72
2022/12/11 08:49:28;;;;;;;13.90;10.93;;;;;;;-3.64;100.00;95087.31;5067092;28;24434;-72
2022/12/11 08:51:56;;;;;;;13.98;11.32;;;;;;;-3.52;100.00;95086.25;5063486;28;25041;-72
2022/12/11 08:54:22;;;;;;;13.63;11.80;;;;;;;-3.36;100.00;95080.03;5060265;28;24453;-72
2022/12/11 08:56:49;;;;;;;12.20;9.88;;;;;;;-3.26;100.00;95084.06;5067640;28;24485;-70
2022/12/11 08:59:17;;;;;;;12.13;10.05;;;;;;;-3.14;100.00;95080.44;5068575;28;24473;-70
2022/12/11 09:01:43;;;;;;;12.10;10.70;;;;;;;-3.03;100.00;95081.06;5066016;28;24439;-70
2022/12/11 09:04:10;;;;;;;11.80;10.13;;;;;;;-3.01;100.00;95078.47;5064492;28;24438;-70
2022/12/11 09:06:36;;;;;;;14.30;10.20;;;;;;;-2.93;100.00;95076.59;5066317;28;24518;-70
2022/12/11 09:09:05;;;;;;;14.18;10.60;;;;;;;-2.82;100.00;95077.22;5061036;28;24441;-70
2022/12/11 09:11:33;;;;;;;12.57;9.68;;;;;;;-2.73;100.00;95069.41;5064933;28;24810;-70
2022/12/11 09:14:01;;;;;;;14.15;10.80;;;;;;;-2.44;100.00;95075.53;5063204;28;24457;-70
2022/12/11 09:16:28;;;;;;;17.63;13.20;;;;;;;-2.26;100.00;95076.81;5064790;28;24431;-70
2022/12/11 09:18:56;;;;;;;14.93;11.68;;;;;;;-2.11;100.00;95073.03;5066979;28;24430;-70
2022/12/11 09:21:26;;;;;;;12.45;10.63;;;;;;;-1.89;100.00;95073.31;5065122;28;24455;-70
2022/12/11 09:23:54;;;;;;;14.90;12.07;;;;;;;-1.61;100.00;95064.13;5065110;28;24427;-70
2022/12/11 09:26:23;;;;;;;14.65;12.45;;;;;;;-1.30;100.00;95070.91;5057630;28;24435;-70
2022/12/11 09:28:52;;;;;;;13.43;11.82;;;;;;;-1.57;100.00;95069.94;5062981;28;24430;-70
2022/12/11 09:31:22;;;;;;;17.43;11.70;;;;;;;-1.55;100.00;95063.97;5065564;28;24522;-70
2022/12/11 09:33:49;;;;;;;15.98;11.65;;;;;;;-1.68;100.00;95070.22;5069061;28;25004;-70
2022/12/11 09:36:15;;;;;;;13.95;11.07;;;;;;;-1.84;100.00;95071.53;5055471;28;24989;-70
2022/12/11 09:38:44;;;;;;;16.08;12.18;;;;;;;-1.53;100.00;95071.53;5062645;28;20860;-70
2022/12/11 09:41:33;;;;;;;13.95;12.10;;;;;;;-1.51;100.00;95065.53;5066606;28;24454;-70
2022/12/11 09:44:04;;;;;;;14.32;11.30;;;;;;;-1.69;100.00;95067.75;5059130;28;24840;-70
2022/12/11 09:46:33;;;;;;;12.82;11.50;;;;;;;-1.77;100.00;95065.41;5059562;28;24453;-70
2022/12/11 09:49:01;;;;;;;16.55;12.02;;;;;;;-1.91;100.00;95068.28;5059917;28;24431;-70
2022/12/11 09:51:35;;;;;;;13.95;11.50;;;;;;;-2.08;100.00;95065.34;5058795;28;24431;-70
2022/12/11 09:54:04;;;;;;;14.55;11.25;;;;;;;-2.17;100.00;95068.94;5063607;28;24445;-70
2022/12/11 09:56:36;;;;;;;14.70;11.98;;;;;;;-2.06;100.00;95068.69;5059916;28;24442;-69
2022/12/11 09:59:13;;;;;;;16.40;10.93;;;;;;;-2.14;100.00;95063.81;5065847;28;24557;-70
2022/12/11 10:01:46;;;;;;;13.75;12.13;;;;;;;-2.15;100.00;95064.69;5062175;28;24441;-70
2022/12/11 10:04:34;;;;;;;18.57;14.23;;;;;;;-2.05;100.00;95066.09;5055400;28;24535;-69
2022/12/11 10:07:09;;;;;;;18.83;15.85;;;;;;;-2.04;100.00;95055.09;5059321;28;24453;-69
2022/12/11 10:09:45;;;;;;;17.27;14.85;;;;;;;-1.98;100.00;95054.94;5057016;28;24435;-70
2022/12/11 10:12:26;;;;;;;13.93;11.83;;;;;;;-1.97;100.00;95050.69;5065954;28;25023;-70
2022/12/11 10:15:09;;;;;;;17.38;12.23;;;;;;;-1.97;100.00;95043.91;5068409;28;24887;-70
2022/12/11 10:17:38;;;;;;;14.85;13.10;;;;;;;-1.79;100.00;95045.13;5060700;28;24470;-69
2022/12/11 10:20:15;;;;;;;13.68;12.20;;;;;;;-1.60;100.00;95042.09;5058915;28;24455;-69
2022/12/11 10:22:43;;;;;;;18.45;12.68;;;;;;;-1.50;100.00;95035.91;5068624;28;24809;-69
2022/12/11 10:25:19;;;;;;;16.60;12.80;;;;;;;-1.43;100.00;95034.03;5067913;28;24441;-70
2022/12/11 10:27:47;;;;;;;14.33;12.63;;;;;;;-1.42;100.00;95031.44;5061211;28;24829;-70
2022/12/11 10:30:16;;;;;;;14.82;10.88;;;;;;;-1.24;100.00;95027.53;5066244;28;24434;-70
2022/12/11 10:32:51;;;;;;;12.68;9.63;;;;;;;-1.18;100.00;95024.00;5067046;28;24442;-70
2022/12/11 10:35:25;;;;;;;19.27;11.15;;;;;;;-1.05;100.00;95026.13;5058134;28;24442;-70
2022/12/11 10:37:57;;;;;;;11.55;10.10;;;;;;;-1.18;100.00;95017.22;5062925;28;24430;-70
2022/12/11 10:40:25;;;;;;;11.10;8.83;;;;;;;-1.04;100.00;95020.19;5067430;28;24465;-70
2022/12/11 10:42:54;;;;;;;12.50;9.67;;;;;;;-1.06;100.00;95013.47;5068660;28;24503;-70
2022/12/11 10:45:21;;;;;;;12.27;9.90;;;;;;;-1.14;100.00;95018.78;5059218;28;24446;-70
2022/12/11 10:47:47;;;;;;;13.47;9.73;;;;;;;-1.10;100.00;95017.00;5060168;28;24499;-70
2022/12/11 10:50:25;;;;;;;12.73;9.30;;;;;;;-1.18;100.00;95008.75;5067496;28;24438;-70
2022/12/11 10:52:53;;;;;;;12.23;10.45;;;;;;;-1.16;100.00;95010.38;5063418;28;24446;-70
2022/12/11 10:55:22;;;;;;;11.95;10.20;;;;;;;-1.13;100.00;95006.91;5062906;28;25007;-70
2022/12/11 10:57:57;;;;;;;12.80;9.70;;;;;;;-1.09;100.00;95000.84;5057947;28;24435;-69
2022/12/11 11:00:35;;;;;;;15.90;9.10;;;;;;;-1.23;100.00;95004.63;5062544;28;24715;-70
2022/12/11 11:03:03;;;;;;;16.98;11.85;;;;;;;-1.27;100.00;94999.69;5068027;28;24466;-69
2022/12/11 11:05:33;;;;;;;15.10;11.38;;;;;;;-1.27;100.00;94994.59;5056978;28;24438;-70
2022/12/11 11:08:10;;;;;;;17.17;12.70;;;;;;;-1.25;100.00;94991.16;5061742;28;24442;-70
2022/12/11 11:10:37;;;;;;;15.45;11.68;;;;;;;-1.44;100.00;94987.47;5065718;28;25003;-70
2022/12/11 11:13:05;;;;;;;17.23;11.52;;;;;;;-1.40;100.00;94986.53;5059838;28;24443;-70
2022/12/11 11:15:31;;;;;;;12.68;9.23;;;;;;;-1.53;100.00;94991.09;5059497;28;24438;-70
2022/12/11 11:18:09;;;;;;;15.18;11.23;;;;;;;-1.55;100.00;94995.41;5062250;28;24442;-70
2022/12/11 11:20:35;;;;;;;15.60;11.83;;;;;;;-1.57;100.00;94989.53;5058134;28;24458;-70
2022/12/11 11:23:04;;;;;;;13.45;10.15;;;;;;;-1.72;100.00;94984.88;5066335;28;24998;-70
2022/12/11 11:25:33;;;;;;;14.40;10.90;;;;;;;-1.66;100.00;94986.44;5064946;28;24482;-70
2022/12/11 11:28:02;;;;;;;11.73;9.90;;;;;;;-1.60;100.00;94983.69;5071009;28;24470;-70
2022/12/11 11:30:33;;;;;;;15.48;10.00;;;;;;;-1.66;100.00;94981.34;5064016;28;24434;-70
2022/12/11 11:33:05;;;;;;;13.88;10.45;;;;;;;-1.60;100.00;94981.16;5063786;28;24446;-70